Information Last Ob Photographs Calibration Meteogram Network Table Neighbors 7 Day High/Low Plot Month High/Low Plot Month Rainfall Plot Observation History Wind Roses Custom Wind Roses Data Calendar Download

23 February 2014 Observation History, timezone: America/Chicago

Select Date:
Show MetarsPrevious DayNext Day
Time Wind
(mph)
Vis.
(mi.)
Sky Cond.
(100s ft)
Present Wx Temperature (ºF) Relative
Humidity
Pressure Precipitation (in.)
Air Dwpt Feels Like 6 hour altimeter
(in.)
sea level
(mb)
1 hr 3 hr 6 hr
Max.Min.
11:55 PMWSW 510 CLR
191213 73% 30.330
KEOK 240555Z AUTO 25004KT 10SM CLR M07/M11 A3033 RMK AO2
11:50 PMWSW 510 CLR
191213 73% 30.330
KEOK 240550Z AUTO 25004KT 10SM CLR M07/M11 A3033 RMK AO2
11:35 PMW 310 CLR
211216 68% 30.330
KEOK 240535Z AUTO 27003KT 10SM CLR M06/M11 A3033 RMK AO2
11:30 PMN 010 CLR
2112 68% 30.340
KEOK 240530Z AUTO 00000KT 10SM CLR M06/M11 A3034 RMK AO2
11:20 PMNW 310 FEW100
211216 68% 30.330
KEOK 240520Z AUTO 31003KT 10SM FEW100 M06/M11 A3033 RMK AO2
11:15 PMN 010 FEW100
2112 68% 30.330
KEOK 240515Z AUTO 00000KT 10SM FEW100 M06/M11 A3033 RMK AO2
10:55 PMNW 310 BKN110
211216 68% 30.340
KEOK 240455Z AUTO 31003KT 10SM BKN110 M06/M11 A3034 RMK AO2
10:50 PMNW 310 BKN110
211216 68% 30.340
KEOK 240450Z AUTO 31003KT 10SM BKN110 M06/M11 A3034 RMK AO2
10:40 PMNW 310 OVC110
211216 68% 30.340
KEOK 240440Z AUTO 32003KT 10SM OVC110 M06/M11 A3034 RMK AO2
10:35 PMNW 510 OVC110
211215 68% 30.340
KEOK 240435Z AUTO 32004KT 10SM OVC110 M06/M11 A3034 RMK AO2
10:30 PMNW 510 OVC110
231217 63% 30.340
KEOK 240430Z AUTO 32004KT 10SM OVC110 M05/M11 A3034 RMK AO2
10:20 PMNNW 510 BKN110
211215 68% 30.340
KEOK 240420Z AUTO 33004KT 10SM BKN110 M06/M11 A3034 RMK AO2
10:15 PMNNW 610 BKN110
211214 68% 30.340
KEOK 240415Z AUTO 33005KT 10SM BKN110 M06/M11 A3034 RMK AO2
10:10 PMNW 510 BKN110
211215 68% 30.330
KEOK 240410Z AUTO 32004KT 10SM BKN110 M06/M11 A3033 RMK AO2
9:55 PMNW 610 SCT110
211214 68% 30.340
KEOK 240355Z AUTO 31005KT 10SM SCT110 M06/M11 A3034 RMK AO2
9:40 PMNW 710 FEW100
231215 63% 30.340
KEOK 240340Z AUTO 31006KT 10SM FEW100 M05/M11 A3034 RMK AO2
9:35 PMNW 710 FEW100
211213 68% 30.340
KEOK 240335Z AUTO 31006KT 10SM FEW100 M06/M11 A3034 RMK AO2
9:15 PMWNW 610 FEW110
231216 63% 30.340
KEOK 240315Z AUTO 29005KT 10SM FEW110 M05/M11 A3034 RMK AO2
9:05 PMNW 710 CLR
231215 63% 30.340
KEOK 240305Z AUTO 31006KT 10SM CLR M05/M11 A3034 RMK AO2
8:55 PMWNW 510 FEW110
231217 63% 30.330
KEOK 240255Z AUTO 30004KT 10SM FEW110 M05/M11 A3033 RMK AO2
8:35 PMNW 610 SCT110
231216 63% 30.330
KEOK 240235Z AUTO 31005KT 10SM SCT110 M05/M11 A3033 RMK AO2
8:15 PMNW 610 BKN110
231216 63% 30.320
KEOK 240215Z AUTO 31005KT 10SM BKN110 M05/M11 A3032 RMK AO2
8:10 PMNW 610 BKN110
231216 63% 30.320
KEOK 240210Z AUTO 31005KT 10SM BKN110 M05/M11 A3032 RMK AO2
8:00 PMNW 510 BKN110
231217 63% 30.320
KEOK 240200Z AUTO 31004KT 10SM BKN110 M05/M11 A3032 RMK AO2
7:55 PMNW 610 SCT110
231216 63% 30.320
KEOK 240155Z AUTO 31005KT 10SM SCT110 M05/M11 A3032 RMK AO2
7:50 PMNW 610 SCT110
231216 63% 30.320
KEOK 240150Z AUTO 32005KT 10SM SCT110 M05/M11 A3032 RMK AO2
7:40 PMNW 510 FEW100
251219 58% 30.320
KEOK 240140Z AUTO 32004KT 10SM FEW100 M04/M11 A3032 RMK AO2
7:35 PMNW 610 FEW100
251218 58% 30.320
KEOK 240135Z AUTO 32005KT 10SM FEW100 M04/M11 A3032 RMK AO2
7:25 PMNW 610 SCT110
251218 58% 30.330
KEOK 240125Z AUTO 31005KT 10SM SCT110 M04/M11 A3033 RMK AO2
7:20 PMNW 610 SCT110
251218 58% 30.330
KEOK 240120Z AUTO 31005KT 10SM SCT110 M04/M11 A3033 RMK AO2
7:15 PMNW 710 SCT110
251217 58% 30.330
KEOK 240115Z AUTO 32006KT 10SM SCT110 M04/M11 A3033 RMK AO2
7:10 PMNW 710 SCT110
251217 58% 30.330
KEOK 240110Z AUTO 32006KT 10SM SCT110 M04/M11 A3033 RMK AO2
7:00 PMNW 710 BKN110
251217 58% 30.330
KEOK 240100Z AUTO 31006KT 10SM BKN110 M04/M11 A3033 RMK AO2
6:55 PMNW 710 BKN110
251217 58% 30.330
KEOK 240055Z AUTO 32006KT 10SM BKN110 M04/M11 A3033 RMK AO2
6:50 PMNW 710 SCT110
271219 54% 30.330
KEOK 240050Z AUTO 31006KT 10SM SCT110 M03/M11 A3033 RMK AO2
6:40 PMNW 810 BKN110
271218 54% 30.320
KEOK 240040Z AUTO 32007KT 10SM BKN110 M03/M11 A3032 RMK AO2
6:35 PMNW 710 OVC110
271219 54% 30.320
KEOK 240035Z AUTO 31006KT 10SM OVC110 M03/M11 A3032 RMK AO2
6:30 PMNW 810 OVC110
271218 54% 30.310
KEOK 240030Z AUTO 32007KT 10SM OVC110 M03/M11 A3031 RMK AO2
6:20 PMNNW 710 BKN100
OVC120
271219 54% 30.310
KEOK 240020Z AUTO 33006KT 10SM BKN100 OVC120 M03/M11 A3031 RMK AO2
6:15 PMNW 710 BKN100
OVC120
271219 54% 30.310
KEOK 240015Z AUTO 32006KT 10SM BKN100 OVC120 M03/M11 A3031 RMK AO2
6:10 PMNW 710 OVC100
271219 54% 30.310
KEOK 240010Z AUTO 32006KT 10SM OVC100 M03/M11 A3031 RMK AO2
6:00 PMNW 910 BKN095
BKN120
271218 54% 30.310
KEOK 240000Z AUTO 32008KT 10SM BKN095 BKN120 M03/M11 A3031 RMK AO2
5:55 PMNNW 910 BKN095
BKN120
271218 54% 30.310
KEOK 232355Z AUTO 33008KT 10SM BKN095 BKN120 M03/M11 A3031 RMK AO2
5:50 PMNW 810 BKN100
BKN120
271218 54% 30.310
KEOK 232350Z AUTO 32007KT 10SM BKN100 BKN120 M03/M11 A3031 RMK AO2
5:40 PMNW 810 FEW095
SCT120
271218 54% 30.310
KEOK 232340Z AUTO 32007KT 10SM FEW095 SCT120 M03/M11 A3031 RMK AO2
5:35 PMNW 6G 1310 SCT095
SCT110
271420 58% 30.310
KEOK 232335Z AUTO 32005G11KT 10SM SCT095 SCT110 M03/M10 A3031 RMK AO2
5:30 PMNW 910 FEW095
FEW110
271218 54% 30.30
KEOK 232330Z AUTO 32008KT 10SM FEW095 FEW110 M03/M11 A3030 RMK AO2
5:20 PMNW 7G 1410 SCT110
271419 58% 30.30
KEOK 232320Z AUTO 32006G12KT 10SM SCT110 M03/M10 A3030 RMK AO2
5:15 PMNNW 910 SCT110
281220 50% 30.30
KEOK 232315Z AUTO 33008KT 10SM SCT110 M02/M11 A3030 RMK AO2
5:10 PMNNW 9G 1510 SCT110
281220 50% 30.30
KEOK 232310Z AUTO 33008G13KT 10SM SCT110 M02/M11 A3030 RMK AO2
5:00 PMNNW 9G 1710 BKN120
281220 50% 30.30
KEOK 232300Z AUTO 33008G15KT 10SM BKN120 M02/M11 A3030 RMK AO2
4:55 PMNNW 1010 SCT120
281219 50% 30.30
KEOK 232255Z AUTO 33009KT 10SM SCT120 M02/M11 A3030 RMK AO2
4:50 PMNNW 910 FEW120
281420 54% 30.30
KEOK 232250Z AUTO 34008KT 10SM FEW120 M02/M10 A3030 RMK AO2
4:35 PMNNW 1010 SCT120
281419 54% 30.30
KEOK 232235Z AUTO 34009KT 10SM SCT120 M02/M10 A3030 RMK AO2
4:30 PMNNW 8G 1510 FEW120
281420 54% 30.30
KEOK 232230Z AUTO 33007G13KT 10SM FEW120 M02/M10 A3030 RMK AO2
4:20 PMNNW 1010 FEW120
281419 54% 30.30
KEOK 232220Z AUTO 34009KT 10SM FEW120 M02/M10 A3030 RMK AO2
4:15 PMNW 1210 FEW120
281218 50% 30.290
KEOK 232215Z AUTO 32010KT 10SM FEW120 M02/M11 A3029 RMK AO2
4:10 PMNNW 1310 FEW120
281218 50% 30.290
KEOK 232210Z AUTO 33011KT 10SM FEW120 M02/M11 A3029 RMK AO2
4:00 PMNNW 1210 FEW120
281218 50% 30.290
KEOK 232200Z AUTO 33010KT 10SM FEW120 M02/M11 A3029 RMK AO2
3:55 PMNNW 1010 FEW120
281419 54% 30.290
KEOK 232155Z AUTO 33009KT 10SM FEW120 M02/M10 A3029 RMK AO2
3:50 PMN 9G 1610 FEW120
281420 54% 30.290
KEOK 232150Z AUTO 35008G14KT 10SM FEW120 M02/M10 A3029 RMK AO2
3:40 PMNW 1610 FEW120
281417 54% 30.290
KEOK 232140Z AUTO 32014KT 10SM FEW120 M02/M10 A3029 RMK AO2
3:35 PMNNW 1310 FEW120
301420 50% 30.290
KEOK 232135Z AUTO 34011KT 10SM FEW120 M01/M10 A3029 RMK AO2
3:30 PMNNW 1010 CLR
301421 50% 30.290
KEOK 232130Z AUTO 33009KT 10SM CLR M01/M10 A3029 RMK AO2
3:15 PMN 9G 1710 CLR
281420 54% 30.30
KEOK 232115Z AUTO 35008G15KT 10SM CLR M02/M10 A3030 RMK AO2
3:10 PMN 1210 CLR
301421 50% 30.290
KEOK 232110Z AUTO 35010KT 10SM CLR M01/M10 A3029 RMK AO2
3:00 PMNW 13G 1810 CLR
301220 47% 30.290
KEOK 232100Z AUTO 32011G16KT 10SM CLR M01/M11 A3029 RMK AO2
2:55 PMNNW 1310 CLR
301220 47% 30.290
KEOK 232055Z AUTO 33011KT 10SM CLR M01/M11 A3029 RMK AO2
2:50 PMNW 1410 CLR
301420 50% 30.290
KEOK 232050Z AUTO 32012KT 10SM CLR M01/M10 A3029 RMK AO2
2:40 PMM10 CLR
301423 50% 30.290
KEOK 232040Z AUTO VRB06G14KT 10SM CLR M01/M10 A3029 RMK AO2
2:35 PMNW 1410 CLR
301220 47% 30.290
KEOK 232035Z AUTO 31012KT 10SM CLR M01/M11 A3029 RMK AO2
2:30 PMNW 910 CLR
281220 50% 30.290
KEOK 232030Z AUTO 32008KT 10SM CLR M02/M11 A3029 RMK AO2
2:20 PMNNW 9G 1510 CLR
301422 50% 30.290
KEOK 232020Z AUTO 33008G13KT 10SM CLR M01/M10 A3029 RMK AO2
2:15 PMNW 1010 CLR
301421 50% 30.290
KEOK 232015Z AUTO 32009KT 10SM CLR M01/M10 A3029 RMK AO2
2:10 PMNW 10G 1610 CLR
281419 54% 30.290
KEOK 232010Z AUTO 32009G14KT 10SM CLR M02/M10 A3029 RMK AO2
2:00 PMNNW 12G 1810 CLR
281418 54% 30.290
KEOK 232000Z AUTO 33010G16KT 10SM CLR M02/M10 A3029 RMK AO2
1:55 PMNNW 1310 CLR
281418 54% 30.290
KEOK 231955Z AUTO 34011KT 10SM CLR M02/M10 A3029 RMK AO2
1:50 PMNW 1210 CLR
281418 54% 30.290
KEOK 231950Z AUTO 32010KT 10SM CLR M02/M10 A3029 RMK AO2
1:40 PMNNW 1210 CLR
281218 50% 30.290
KEOK 231940Z AUTO 34010KT 10SM CLR M02/M11 A3029 RMK AO2
1:35 PMNNW 1310 CLR
281418 54% 30.30
KEOK 231935Z AUTO 33011KT 10SM CLR M02/M10 A3030 RMK AO2
1:30 PMNNW 10G 1610 CLR
281419 54% 30.30
KEOK 231930Z AUTO 33009G14KT 10SM CLR M02/M10 A3030 RMK AO2
1:20 PMNW 1310 FEW090
SCT120
281218 50% 30.30
KEOK 231920Z AUTO 32011KT 10SM FEW090 SCT120 M02/M11 A3030 RMK AO2
1:15 PMNW 1510 SCT090
SCT120
281217 50% 30.30
KEOK 231915Z AUTO 31013KT 10SM SCT090 SCT120 M02/M11 A3030 RMK AO2
1:10 PMNNW 7G 1610 SCT090
BKN120
281421 54% 30.290
KEOK 231910Z AUTO 34006G14KT 10SM SCT090 BKN120 M02/M10 A3029 RMK AO2
1:00 PMNNW 910 BKN090
BKN110
271018 50% 30.290
KEOK 231900Z AUTO 33008KT 10SM BKN090 BKN110 M03/M12 A3029 RMK AO2
12:55 PMNW 910 SCT090
BKN110
271218 54% 30.290
KEOK 231855Z AUTO 32008KT 10SM SCT090 BKN110 M03/M11 A3029 RMK AO2
12:50 PMN 1010 SCT090
SCT110
271217 54% 30.290
KEOK 231850Z AUTO 35009KT 10SM SCT090 SCT110 M03/M11 A3029 RMK AO2
12:40 PMNW 910 SCT090
SCT110
281220 50% 30.290
KEOK 231840Z AUTO 32008KT 10SM SCT090 SCT110 M02/M11 A3029 RMK AO2
12:35 PMN 7G 1410 FEW095
FEW110
271219 54% 30.30
KEOK 231835Z AUTO 36006G12KT 10SM FEW095 FEW110 M03/M11 A3030 RMK AO2
12:30 PMNNW 910 FEW110
281220 50% 30.30
KEOK 231830Z AUTO 33008KT 290V360 10SM FEW110 M02/M11 A3030 RMK AO2
12:20 PMNW 1210 FEW110
271216 54% 30.30
KEOK 231820Z AUTO 31010KT 10SM FEW110 M03/M11 A3030 RMK AO2
12:15 PMNW 910 FEW110
271218 54% 30.30
KEOK 231815Z AUTO 31008KT 10SM FEW110 M03/M11 A3030 RMK AO2
12:10 PMNNW 810 FEW120
271218 54% 30.30
KEOK 231810Z AUTO 33007KT 300V010 10SM FEW120 M03/M11 A3030 RMK AO2
12:00 PMNNW 910 CLR
271218 54% 30.310
KEOK 231800Z AUTO 33008KT 310V010 10SM CLR M03/M11 A3031 RMK AO2
11:55 AMN 810 CLR
271018 50% 30.310
KEOK 231755Z AUTO 36007KT 10SM CLR M03/M12 A3031 RMK AO2
11:50 AMM10 CLR
271020 50% 30.30
KEOK 231750Z AUTO VRB05G11KT 10SM CLR M03/M12 A3030 RMK AO2
11:40 AMM10 CLR
271219 54% 30.310
KEOK 231740Z AUTO VRB06G12KT 10SM CLR M03/M11 A3031 RMK AO2
11:35 AMN 1010 CLR
271217 54% 30.30
KEOK 231735Z AUTO 35009KT 310V020 10SM CLR M03/M11 A3030 RMK AO2
11:30 AMN 910 CLR
271018 50% 30.310
KEOK 231730Z AUTO 35008KT 10SM CLR M03/M12 A3031 RMK AO2
11:20 AMNNW 910 CLR
251015 54% 30.30
KEOK 231720Z AUTO 34008KT 320V020 10SM CLR M04/M12 A3030 RMK AO2
11:15 AMNNW 610 CLR
251018 54% 30.30
KEOK 231715Z AUTO 34005KT 10SM CLR M04/M12 A3030 RMK AO2
11:10 AMNW 7G 1510 CLR
251017 54% 30.30
KEOK 231710Z AUTO 32006G13KT 10SM CLR M04/M12 A3030 RMK AO2
11:00 AMN 7G 1510 CLR
251017 54% 30.30
KEOK 231700Z AUTO 35006G13KT 10SM CLR M04/M12 A3030 RMK AO2
10:55 AMN 910 CLR
251015 54% 30.310
KEOK 231655Z AUTO 35008KT 10SM CLR M04/M12 A3031 RMK AO2
10:50 AMNNW 910 CLR
25915 50% 30.30
KEOK 231650Z AUTO 34008KT 10SM CLR M04/M13 A3030 RMK AO2
10:35 AMN 910 CLR
25915 50% 30.30
KEOK 231635Z AUTO 36008KT 10SM CLR M04/M13 A3030 RMK AO2
10:30 AMN 8G 1510 CLR
251016 54% 30.30
KEOK 231630Z AUTO 36007G13KT 10SM CLR M04/M12 A3030 RMK AO2
10:20 AMN 910 CLR
231013 58% 30.30
KEOK 231620Z AUTO 36008KT 10SM CLR M05/M12 A3030 RMK AO2
10:15 AMN 910 CLR
231013 58% 30.30
KEOK 231615Z AUTO 35008KT 10SM CLR M05/M12 A3030 RMK AO2
10:10 AMNNW 7G 1310 CLR
231015 58% 30.30
KEOK 231610Z AUTO 34006G11KT 10SM CLR M05/M12 A3030 RMK AO2
10:00 AMN 910 CLR
211011 63% 30.30
KEOK 231600Z AUTO 35008KT 10SM CLR M06/M12 A3030 RMK AO2
9:55 AMN 1210 CLR
21109 63% 30.290
KEOK 231555Z AUTO 36010KT 10SM CLR M06/M12 A3029 RMK AO2
9:50 AMN 9G 1610 CLR
211011 63% 30.290
KEOK 231550Z AUTO 01008G14KT 10SM CLR M06/M12 A3029 RMK AO2
9:40 AMN 1210 CLR
21109 63% 30.290
KEOK 231540Z AUTO 01010KT 10SM CLR M06/M12 A3029 RMK AO2
9:35 AMN 1310 CLR
21109 63% 30.290
KEOK 231535Z AUTO 01011KT 10SM CLR M06/M12 A3029 RMK AO2
9:30 AMN 1310 CLR
21109 63% 30.290
KEOK 231530Z AUTO 35011KT 10SM CLR M06/M12 A3029 RMK AO2
9:20 AMN 1210 CLR
21109 63% 30.290
KEOK 231520Z AUTO 36010KT 10SM CLR M06/M12 A3029 RMK AO2
9:15 AMNNW 1010 CLR
211010 63% 30.290
KEOK 231515Z AUTO 34009KT 10SM CLR M06/M12 A3029 RMK AO2
9:10 AMN 1010 CLR
211210 68% 30.290
KEOK 231510Z AUTO 36009KT 320V020 10SM CLR M06/M11 A3029 RMK AO2
9:00 AMN 810 CLR
211012 63% 30.290
KEOK 231500Z AUTO 35007KT 10SM CLR M06/M12 A3029 RMK AO2
8:55 AMN 8G 1610 CLR
211012 63% 30.280
KEOK 231455Z AUTO 35007G14KT 10SM CLR M06/M12 A3028 RMK AO2
8:50 AMN 9G 1610 CLR
211011 63% 30.280
KEOK 231450Z AUTO 01008G14KT 10SM CLR M06/M12 A3028 RMK AO2
8:40 AMN 12G 1710 CLR
21109 63% 30.280
KEOK 231440Z AUTO 36010G15KT 10SM CLR M06/M12 A3028 RMK AO2
8:30 AMN 1010 CLR
211010 63% 30.270
KEOK 231430Z AUTO 35009KT 10SM CLR M06/M12 A3027 RMK AO2
8:20 AMN 1210 CLR
21109 63% 30.260
KEOK 231420Z AUTO 36010KT 10SM CLR M06/M12 A3026 RMK AO2
8:15 AMN 8G 1510 CLR
211012 63% 30.260
KEOK 231415Z AUTO 01007G13KT 10SM CLR M06/M12 A3026 RMK AO2
8:10 AMN 1010 CLR
211010 63% 30.270
KEOK 231410Z AUTO 36009KT 10SM CLR M06/M12 A3027 RMK AO2
8:00 AMN 1210 CLR
21109 63% 30.260
KEOK 231400Z AUTO 01010KT 10SM CLR M06/M12 A3026 RMK AO2
7:55 AMN 1210 CLR
21109 63% 30.250
KEOK 231355Z AUTO 01010KT 10SM CLR M06/M12 A3025 RMK AO2
7:50 AMN 9G 1510 CLR
211011 63% 30.250
KEOK 231350Z AUTO 01008G13KT 10SM CLR M06/M12 A3025 RMK AO2
7:40 AMN 10G 1610 CLR
211010 63% 30.250
KEOK 231340Z AUTO 01009G14KT 10SM CLR M06/M12 A3025 RMK AO2
7:35 AMN 910 CLR
211011 63% 30.250
KEOK 231335Z AUTO 36008KT 10SM CLR M06/M12 A3025 RMK AO2
7:30 AMNNE 7G 1410 CLR
211013 63% 30.250
KEOK 231330Z AUTO 02006G12KT 10SM CLR M06/M12 A3025 RMK AO2
7:20 AMM10 CLR
211013 63% 30.240
KEOK 231320Z AUTO VRB06KT 10SM CLR M06/M12 A3024 RMK AO2
7:15 AMNNE 710 FEW120
211013 63% 30.240
KEOK 231315Z AUTO 02006KT 10SM FEW120 M06/M12 A3024 RMK AO2
7:10 AMNNE 710 FEW120
211013 63% 30.230
KEOK 231310Z AUTO 03006KT 10SM FEW120 M06/M12 A3023 RMK AO2
7:00 AMN 910 FEW120
211011 63% 30.240
KEOK 231300Z AUTO 36008KT 10SM FEW120 M06/M12 A3024 RMK AO2
6:55 AMNNE 910 SCT120
211011 63% 30.240
KEOK 231255Z AUTO 02008KT 10SM SCT120 M06/M12 A3024 RMK AO2
6:50 AMN 910 SCT120
211011 63% 30.240
KEOK 231250Z AUTO 01008KT 10SM SCT120 M06/M12 A3024 RMK AO2
6:35 AMN 810 SCT120
211212 68% 30.250
KEOK 231235Z AUTO 01007KT 10SM SCT120 M06/M11 A3025 RMK AO2
6:20 AMM10 BKN110
211213 68% 30.240
KEOK 231220Z AUTO VRB06G12KT 350V070 10SM BKN110 M06/M11 A3024 RMK AO2
6:15 AMNNE 610 BKN110
211214 68% 30.240
KEOK 231215Z AUTO 02005KT 10SM BKN110 M06/M11 A3024 RMK AO2
6:10 AMNNE 710 SCT100
BKN120
211213 68% 30.240
KEOK 231210Z AUTO 02006KT 10SM SCT100 BKN120 M06/M11 A3024 RMK AO2
6:00 AMNNE 610 FEW070
BKN100
OVC120
211214 68% 30.240
KEOK 231200Z AUTO 02005KT 10SM FEW070 BKN100 OVC120 M06/M11 A3024 RMK AO2
5:55 AMN 810 SCT070
BKN100
BKN120
211212 68% 30.240
KEOK 231155Z AUTO 01007KT 10SM SCT070 BKN100 BKN120 M06/M11 A3024 RMK AO2
5:50 AMN 610 SCT070
BKN100
BKN120
211214 68% 30.240
KEOK 231150Z AUTO 01005KT 10SM SCT070 BKN100 BKN120 M06/M11 A3024 RMK AO2
5:40 AMN 910 BKN070
OVC090
231213 63% 30.250
KEOK 231140Z AUTO 01008KT 10SM BKN070 OVC090 M05/M11 A3025 RMK AO2
5:35 AMN 10G 1710 BKN070
OVC085
231212 63% 30.240
KEOK 231135Z AUTO 01009G15KT 10SM BKN070 OVC085 M05/M11 A3024 RMK AO2
5:30 AMN 1410 BKN070
OVC085
231211 63% 30.240
KEOK 231130Z AUTO 36012KT 10SM BKN070 OVC085 M05/M11 A3024 RMK AO2
5:20 AMN 1410 BKN070
OVC085
231211 63% 30.240
KEOK 231120Z AUTO 36012KT 10SM BKN070 OVC085 M05/M11 A3024 RMK AO2
5:15 AMN 12G 1710 BKN070
OVC080
231212 63% 30.240
KEOK 231115Z AUTO 35010G15KT 10SM BKN070 OVC080 M05/M11 A3024 RMK AO2
5:10 AMN 1310 BKN070
OVC080
231211 63% 30.230
KEOK 231110Z AUTO 35011KT 10SM BKN070 OVC080 M05/M11 A3023 RMK AO2
5:00 AMN 8G 1510 BKN070
OVC085
231414 68% 30.220
KEOK 231100Z AUTO 35007G13KT 330V040 10SM BKN070 OVC085 M05/M10 A3022 RMK AO2
4:55 AMN 910 BKN075
OVC085
231413 68% 30.220
KEOK 231055Z AUTO 35008KT 10SM BKN075 OVC085 M05/M10 A3022 RMK AO2
4:50 AMN 910 SCT070
OVC080
231413 68% 30.220
KEOK 231050Z AUTO 36008KT 10SM SCT070 OVC080 M05/M10 A3022 RMK AO2
4:40 AMN 910 SCT065
OVC080
231413 68% 30.210
KEOK 231040Z AUTO 35008KT 10SM SCT065 OVC080 M05/M10 A3021 RMK AO2
4:35 AMN 910 SCT065
OVC080
231413 68% 30.210
KEOK 231035Z AUTO 35008KT 10SM SCT065 OVC080 M05/M10 A3021 RMK AO2
4:30 AMN 1010 SCT065
BKN075
OVC095
231212 63% 30.210
KEOK 231030Z AUTO 35009KT 10SM SCT065 BKN075 OVC095 M05/M11 A3021 RMK AO2
4:20 AMN 1010 SCT065
OVC090
231412 68% 30.20
KEOK 231020Z AUTO 36009KT 10SM SCT065 OVC090 M05/M10 A3020 RMK AO2
4:15 AMN 1010 FEW055
SCT075
OVC095
231412 68% 30.20
KEOK 231015Z AUTO 36009KT 10SM FEW055 SCT075 OVC095 M05/M10 A3020 RMK AO2
4:10 AMN 12G 1710 FEW050
OVC095
231212 63% 30.190
KEOK 231010Z AUTO 01010G15KT 10SM FEW050 OVC095 M05/M11 A3019 RMK AO2
4:00 AMN 1010 FEW049
BKN055
OVC100
231212 63% 30.190
KEOK 231000Z AUTO 36009KT 10SM FEW049 BKN055 OVC100 M05/M11 A3019 RMK AO2
3:50 AMNNE 910 BKN050
OVC055
211211 68% 30.170
KEOK 230950Z AUTO 02008KT 10SM BKN050 OVC055 M06/M11 A3017 RMK AO2
3:40 AMN 910 OVC050
211211 68% 30.180
KEOK 230940Z AUTO 01008KT 10SM OVC050 M06/M11 A3018 RMK AO2
3:35 AMN 1010 BKN050
OVC060
231212 63% 30.180
KEOK 230935Z AUTO 36009KT 10SM BKN050 OVC060 M05/M11 A3018 RMK AO2
3:30 AMN 910 BKN049
BKN055
OVC070
231213 63% 30.20
KEOK 230930Z AUTO 01008KT 10SM BKN049 BKN055 OVC070 M05/M11 A3020 RMK AO2
3:20 AMN 7G 1310 SCT050
OVC065
231215 63% 30.190
KEOK 230920Z AUTO 35006G11KT 10SM SCT050 OVC065 M05/M11 A3019 RMK AO2
3:15 AMN 710 SCT060
OVC070
231415 68% 30.190
KEOK 230915Z AUTO 36006KT 10SM SCT060 OVC070 M05/M10 A3019 RMK AO2
3:10 AMN 610 BKN070
OVC075
231416 68% 30.20
KEOK 230910Z AUTO 35005KT 10SM BKN070 OVC075 M05/M10 A3020 RMK AO2
3:00 AMN 810 BKN070
BKN080
OVC095
231214 63% 30.20
KEOK 230900Z AUTO 35007KT 10SM BKN070 BKN080 OVC095 M05/M11 A3020 RMK AO2
2:55 AMN 710 BKN075
OVC095
211213 68% 30.190
KEOK 230855Z AUTO 36006KT 10SM BKN075 OVC095 M06/M11 A3019 RMK AO2
2:50 AMN 810 BKN075
OVC095
211212 68% 30.190
KEOK 230850Z AUTO 36007KT 10SM BKN075 OVC095 M06/M11 A3019 RMK AO2
2:40 AMN 710 FEW075
OVC095
211213 68% 30.190
KEOK 230840Z AUTO 01006KT 10SM FEW075 OVC095 M06/M11 A3019 RMK AO2
2:35 AMN 710 FEW075
OVC095
211213 68% 30.190
KEOK 230835Z AUTO 01006KT 10SM FEW075 OVC095 M06/M11 A3019 RMK AO2
2:30 AMN 8G 1610 OVC100
211212 68% 30.190
KEOK 230830Z AUTO 01007G14KT 10SM OVC100 M06/M11 A3019 RMK AO2
2:20 AMN 12G 1710 OVC100
21129 68% 30.190
KEOK 230820Z AUTO 36010G15KT 10SM OVC100 M06/M11 A3019 RMK AO2
2:15 AMN 9G 1710 OVC110
211211 68% 30.190
KEOK 230815Z AUTO 36008G15KT 10SM OVC110 M06/M11 A3019 RMK AO2
2:10 AMN 1010 OVC110
211210 68% 30.190
KEOK 230810Z AUTO 36009KT 10SM OVC110 M06/M11 A3019 RMK AO2
2:00 AMN 910 OVC110
211211 68% 30.20
KEOK 230800Z AUTO 01008KT 10SM OVC110 M06/M11 A3020 RMK AO2
1:55 AMN 1310 OVC110
21129 68% 30.20
KEOK 230755Z AUTO 36011KT 10SM OVC110 M06/M11 A3020 RMK AO2
1:45 AMN 9G 1510 BKN110
211211 68% 30.190
KEOK 230745Z AUTO 36008G13KT 10SM BKN110 M06/M11 A3019 RMK AO2
1:40 AMN 1210 BKN110
21129 68% 30.20
KEOK 230740Z AUTO 35010KT 10SM BKN110 M06/M11 A3020 RMK AO2
1:35 AMN 1210 BKN110
21129 68% 30.190
KEOK 230735Z AUTO 35010KT 10SM BKN110 M06/M11 A3019 RMK AO2
1:30 AMN 1010 SCT110
211210 68% 30.190
KEOK 230730Z AUTO 35009KT 10SM SCT110 M06/M11 A3019 RMK AO2
1:20 AMN 8G 1610 CLR
211212 68% 30.170
KEOK 230720Z AUTO 01007G14KT 10SM CLR M06/M11 A3017 RMK AO2
1:15 AMN 1310 CLR
21129 68% 30.170
KEOK 230715Z AUTO 36011KT 10SM CLR M06/M11 A3017 RMK AO2
1:10 AMN 10 CLR
211210 68% 30.170
KEOK 230710Z AUTO 35009KT CLR M06/M11 A3017 RMK AO2
1:05 AMN 8G 15 CLR
211212 68% 30.160
KEOK 230705Z AUTO 01007G13KT CLR M06/M11 A3016 RMK AO2
12:55 AMN 9G 1510 CLR
211211 68% 30.140
KEOK 230655Z AUTO 01008G13KT 340V040 10SM CLR M06/M11 A3014 RMK AO2
12:40 AMN 1310 CLR
21129 68% 30.150
KEOK 230640Z AUTO 01011KT 10SM CLR M06/M11 A3015 RMK AO2
12:35 AMN 1410 CLR
21128 68% 30.150
KEOK 230635Z AUTO 36012KT 10SM CLR M06/M11 A3015 RMK AO2
12:30 AMN 1410 CLR
231211 63% 30.140
KEOK 230630Z AUTO 35012KT 10SM CLR M05/M11 A3014 RMK AO2
12:25 AMN 1210 CLR
231212 63% 30.160
KEOK 230625Z AUTO 35010KT 10SM CLR M05/M11 A3016 RMK AO2
12:15 AMN 12G 2110 CLR
231212 63% 30.140
KEOK 230615Z AUTO 36010G18KT 10SM CLR M05/M11 A3014 RMK AO2

Data Notes